Cleardale, Canada
Current Conditions -  °F | °C
As of 1:00 AM on Tuesday 27 Jan 2015 (Local Time) from CYXJ Reporting Station
Light Snow Light Snow  
Wind Chill: 12°   Ceiling: 800
Heat Index: 23°   Visibility: 2mi
Dew Point: 19°   Wind: 12mph
Humidity: 86%   Direction: 340°NNW
Pressure: 29.8"   Gusts: NA
Location:  56.33°N, 119.58°W
Report Text: CYXJ 270800Z 34010KT 2SM -SN OVC008 M05/M07 A2980 RMK SC8 SLP124
Loading
Personal Weather Stations






























Interactive Weather Map New forecast layout! Learn more

10-Day Weather Forecast

Advertisements
Track Severe Weather on mobile